Decoded Metar for GMMN (CASABLANCA in MOROCCO) (IATA:CMN) | Meteo·Mobile Aviation Weather
aviador You're here:

GMMN Decoded Metar

CASABLANCA in MOROCCO
Report Time2018-09-22 14:30:00
UTC Time2018-09-22 14:51:03
Flight Rules vfr VFR
Wind350° at 13 kt
W.Decomp.*RWY 35: 13.0 kt HW 0.5 kt RCW
W.Rank350° ranks 7
Current wind is above 350° avg. (8.9)
Visibility9999 m
Phenomena:N/A
Clouds:N/A
Expected CloudBase > 4,800 ft AGL from Temp-Dew spread
CeilingNone
Temp32°C (ISA +18)
Dew Point20°C (49% RH)
Heat Index34.1°C
AAT31.0°C
QNH1016 hPa
Density Alt2,979 ft
Elevation676 ft
Report Wrong Elevation
Raw Report
GMMN 221430Z 35013KT CAVOK 32/20 Q1016 NOSIG=

Extra information for GMMN:More info

Metar Taf Metar & Taf Last 4 Metars F.Rules Stats Wind Profile Meteogram Temp Stats Airport Information Weather charts Add Link Nearby VenuesMetar ALERT Operation Metar Decoded Social comments